sensor_id;sensor_type;location;lat;lon;timestamp;temperature;humidity
19031;DHT22;9648;51.130;13.978;2022-10-03T00:01:11;10.30;99.90
19031;DHT22;9648;51.130;13.978;2022-10-03T00:03:51;10.30;99.90
19031;DHT22;9648;51.130;13.978;2022-10-03T00:06:28;10.30;99.90
19031;DHT22;9648;51.130;13.978;2022-10-03T00:09:21;10.30;99.90
19031;DHT22;9648;51.130;13.978;2022-10-03T00:12:02;10.40;99.90
19031;DHT22;9648;51.130;13.978;2022-10-03T00:14:42;10.40;99.90
19031;DHT22;9648;51.130;13.978;2022-10-03T00:17:14;10.40;99.90
19031;DHT22;9648;51.130;13.978;2022-10-03T00:19:50;10.40;99.90
19031;DHT22;9648;51.130;13.978;2022-10-03T00:22:27;10.40;99.90
19031;DHT22;9648;51.130;13.978;2022-10-03T00:25:05;10.40;99.90
19031;DHT22;9648;51.130;13.978;2022-10-03T00:27:43;10.50;99.90
19031;DHT22;9648;51.130;13.978;2022-10-03T00:30:15;10.50;99.90
19031;DHT22;9648;51.130;13.978;2022-10-03T00:35:50;10.50;99.90
19031;DHT22;9648;51.130;13.978;2022-10-03T00:38:32;10.50;99.90
19031;DHT22;9648;51.130;13.978;2022-10-03T00:41:15;10.50;99.90
19031;DHT22;9648;51.130;13.978;2022-10-03T00:44:17;10.50;99.90
19031;DHT22;9648;51.130;13.978;2022-10-03T00:53:26;10.50;99.90
19031;DHT22;9648;51.130;13.978;2022-10-03T00:59:01;10.60;99.90
19031;DHT22;9648;51.130;13.978;2022-10-03T01:01:36;10.60;99.90
19031;DHT22;9648;51.130;13.978;2022-10-03T01:04:22;10.60;99.90
19031;DHT22;9648;51.130;13.978;2022-10-03T01:07:01;10.60;99.90
19031;DHT22;9648;51.130;13.978;2022-10-03T01:09:36;10.60;99.90
19031;DHT22;9648;51.130;13.978;2022-10-03T01:12:18;10.60;99.90
19031;DHT22;9648;51.130;13.978;2022-10-03T01:15:07;10.60;99.90
19031;DHT22;9648;51.130;13.978;2022-10-03T01:17:45;10.60;99.90
19031;DHT22;9648;51.130;13.978;2022-10-03T01:20:31;10.50;99.90
19031;DHT22;9648;51.130;13.978;2022-10-03T01:23:24;10.60;99.90
19031;DHT22;9648;51.130;13.978;2022-10-03T01:26:08;10.60;99.90
19031;DHT22;9648;51.130;13.978;2022-10-03T01:28:48;10.50;99.90
19031;DHT22;9648;51.130;13.978;2022-10-03T01:31:41;10.60;99.90
19031;DHT22;9648;51.130;13.978;2022-10-03T01:34:14;10.60;99.90
19031;DHT22;9648;51.130;13.978;2022-10-03T01:36:55;10.60;99.90
19031;DHT22;9648;51.130;13.978;2022-10-03T01:39:30;10.60;99.90
19031;DHT22;9648;51.130;13.978;2022-10-03T01:42:00;10.60;99.90
19031;DHT22;9648;51.130;13.978;2022-10-03T01:44:38;10.60;99.90
19031;DHT22;9648;51.130;13.978;2022-10-03T01:47:16;10.60;99.90
19031;DHT22;9648;51.130;13.978;2022-10-03T01:49:50;10.60;99.90
19031;DHT22;9648;51.130;13.978;2022-10-03T01:52:23;10.60;99.90
19031;DHT22;9648;51.130;13.978;2022-10-03T01:54:57;10.60;99.90
19031;DHT22;9648;51.130;13.978;2022-10-03T01:57:31;10.60;99.90
19031;DHT22;9648;51.130;13.978;2022-10-03T02:00:07;10.70;99.90
19031;DHT22;9648;51.130;13.978;2022-10-03T02:02:41;10.60;99.90
19031;DHT22;9648;51.130;13.978;2022-10-03T02:05:14;10.60;99.90
19031;DHT22;9648;51.130;13.978;2022-10-03T02:07:49;10.60;99.90
19031;DHT22;9648;51.130;13.978;2022-10-03T02:10:27;10.60;99.90
19031;DHT22;9648;51.130;13.978;2022-10-03T02:13:02;10.60;99.90
19031;DHT22;9648;51.130;13.978;2022-10-03T02:15:39;10.60;99.90
19031;DHT22;9648;51.130;13.978;2022-10-03T02:18:12;10.60;99.90
19031;DHT22;9648;51.130;13.978;2022-10-03T02:20:44;10.60;99.90
19031;DHT22;9648;51.130;13.978;2022-10-03T02:23:24;10.60;99.90
19031;DHT22;9648;51.130;13.978;2022-10-03T02:25:59;10.60;99.90
19031;DHT22;9648;51.130;13.978;2022-10-03T02:29:08;10.60;99.90
19031;DHT22;9648;51.130;13.978;2022-10-03T02:35:05;10.60;99.90
19031;DHT22;9648;51.130;13.978;2022-10-03T02:38:08;10.60;99.90
19031;DHT22;9648;51.130;13.978;2022-10-03T02:40:53;10.60;99.90
19031;DHT22;9648;51.130;13.978;2022-10-03T02:49:44;10.60;99.90
19031;DHT22;9648;51.130;13.978;2022-10-03T02:52:47;10.60;99.90
19031;DHT22;9648;51.130;13.978;2022-10-03T02:55:37;10.60;99.90
19031;DHT22;9648;51.130;13.978;2022-10-03T02:58:26;10.60;99.90
19031;DHT22;9648;51.130;13.978;2022-10-03T03:01:20;10.60;99.90
19031;DHT22;9648;51.130;13.978;2022-10-03T03:04:15;10.60;99.90
19031;DHT22;9648;51.130;13.978;2022-10-03T03:07:01;10.70;99.90
19031;DHT22;9648;51.130;13.978;2022-10-03T03:09:51;10.70;99.90
19031;DHT22;9648;51.130;13.978;2022-10-03T03:18:28;10.60;99.90
19031;DHT22;9648;51.130;13.978;2022-10-03T03:21:09;10.60;99.90
19031;DHT22;9648;51.130;13.978;2022-10-03T03:23:56;10.60;99.90
19031;DHT22;9648;51.130;13.978;2022-10-03T03:26:43;10.60;99.90
19031;DHT22;9648;51.130;13.978;2022-10-03T03:29:23;10.60;99.90
19031;DHT22;9648;51.130;13.978;2022-10-03T03:31:57;10.60;99.90
19031;DHT22;9648;51.130;13.978;2022-10-03T03:34:32;10.60;99.90
19031;DHT22;9648;51.130;13.978;2022-10-03T03:37:07;10.60;99.90
19031;DHT22;9648;51.130;13.978;2022-10-03T03:39:54;10.60;99.90
19031;DHT22;9648;51.130;13.978;2022-10-03T03:42:52;10.60;99.90
19031;DHT22;9648;51.130;13.978;2022-10-03T03:45:32;10.60;99.90
19031;DHT22;9648;51.130;13.978;2022-10-03T03:48:21;10.50;99.90
19031;DHT22;9648;51.130;13.978;2022-10-03T03:51:04;10.60;99.90
19031;DHT22;9648;51.130;13.978;2022-10-03T03:54:12;10.50;99.90
19031;DHT22;9648;51.130;13.978;2022-10-03T03:57:07;10.50;99.90
19031;DHT22;9648;51.130;13.978;2022-10-03T04:00:11;10.50;99.90
19031;DHT22;9648;51.130;13.978;2022-10-03T04:03:00;10.50;99.90
19031;DHT22;9648;51.130;13.978;2022-10-03T04:08:32;10.50;99.90
19031;DHT22;9648;51.130;13.978;2022-10-03T04:11:15;10.50;99.90
19031;DHT22;9648;51.130;13.978;2022-10-03T04:14:08;10.50;99.90
19031;DHT22;9648;51.130;13.978;2022-10-03T04:16:53;10.50;99.90
19031;DHT22;9648;51.130;13.978;2022-10-03T04:19:53;10.50;99.90
19031;DHT22;9648;51.130;13.978;2022-10-03T04:22:39;10.50;99.90
19031;DHT22;9648;51.130;13.978;2022-10-03T04:25:21;10.50;99.90
19031;DHT22;9648;51.130;13.978;2022-10-03T04:28:12;10.50;99.90
19031;DHT22;9648;51.130;13.978;2022-10-03T04:30:52;10.50;99.90
19031;DHT22;9648;51.130;13.978;2022-10-03T04:33:30;10.50;99.90
19031;DHT22;9648;51.130;13.978;2022-10-03T04:36:22;10.40;99.90
19031;DHT22;9648;51.130;13.978;2022-10-03T04:38:58;10.40;99.90
19031;DHT22;9648;51.130;13.978;2022-10-03T04:41:39;10.40;99.90
19031;DHT22;9648;51.130;13.978;2022-10-03T04:44:14;10.40;99.90
19031;DHT22;9648;51.130;13.978;2022-10-03T04:46:51;10.50;99.90
19031;DHT22;9648;51.130;13.978;2022-10-03T04:49:26;10.50;99.90
19031;DHT22;9648;51.130;13.978;2022-10-03T04:51:59;10.50;99.90
19031;DHT22;9648;51.130;13.978;2022-10-03T04:54:35;10.50;99.90
19031;DHT22;9648;51.130;13.978;2022-10-03T04:57:18;10.50;99.90
19031;DHT22;9648;51.130;13.978;2022-10-03T04:59:51;10.50;99.90
19031;DHT22;9648;51.130;13.978;2022-10-03T05:02:33;10.50;99.90
19031;DHT22;9648;51.130;13.978;2022-10-03T05:05:20;10.50;99.90
19031;DHT22;9648;51.130;13.978;2022-10-03T05:07:53;10.50;99.90
19031;DHT22;9648;51.130;13.978;2022-10-03T05:10:41;10.50;99.90
19031;DHT22;9648;51.130;13.978;2022-10-03T05:13:14;10.40;99.90
19031;DHT22;9648;51.130;13.978;2022-10-03T05:15:50;10.50;99.90
19031;DHT22;9648;51.130;13.978;2022-10-03T05:18:29;10.50;99.90
19031;DHT22;9648;51.130;13.978;2022-10-03T05:21:06;10.50;99.90
19031;DHT22;9648;51.130;13.978;2022-10-03T05:23:44;10.50;99.90
19031;DHT22;9648;51.130;13.978;2022-10-03T05:26:21;10.50;99.90
19031;DHT22;9648;51.130;13.978;2022-10-03T05:28:56;10.50;99.90
19031;DHT22;9648;51.130;13.978;2022-10-03T05:31:36;10.50;99.90
19031;DHT22;9648;51.130;13.978;2022-10-03T05:34:20;10.50;99.90
19031;DHT22;9648;51.130;13.978;2022-10-03T05:36:58;10.50;99.90
19031;DHT22;9648;51.130;13.978;2022-10-03T05:39:32;10.50;99.90
19031;DHT22;9648;51.130;13.978;2022-10-03T05:42:18;10.50;99.90
19031;DHT22;9648;51.130;13.978;2022-10-03T05:44:56;10.50;99.90
19031;DHT22;9648;51.130;13.978;2022-10-03T05:47:29;10.50;99.90
19031;DHT22;9648;51.130;13.978;2022-10-03T05:50:51;10.60;99.90
19031;DHT22;9648;51.130;13.978;2022-10-03T05:56:39;10.60;99.90
19031;DHT22;9648;51.130;13.978;2022-10-03T06:05:15;10.60;99.90
19031;DHT22;9648;51.130;13.978;2022-10-03T06:08:05;10.60;99.90
19031;DHT22;9648;51.130;13.978;2022-10-03T06:10:48;10.60;99.90
19031;DHT22;9648;51.130;13.978;2022-10-03T06:13:36;10.60;99.90
19031;DHT22;9648;51.130;13.978;2022-10-03T06:16:23;10.70;99.90
19031;DHT22;9648;51.130;13.978;2022-10-03T06:19:09;10.70;99.90
19031;DHT22;9648;51.130;13.978;2022-10-03T06:22:06;10.70;99.90
19031;DHT22;9648;51.130;13.978;2022-10-03T06:25:11;10.70;99.90
19031;DHT22;9648;51.130;13.978;2022-10-03T06:28:16;10.70;99.90
19031;DHT22;9648;51.130;13.978;2022-10-03T06:31:10;10.70;99.90
19031;DHT22;9648;51.130;13.978;2022-10-03T06:36:51;10.80;99.90
19031;DHT22;9648;51.130;13.978;2022-10-03T06:39:58;10.90;99.90
19031;DHT22;9648;51.130;13.978;2022-10-03T06:43:01;11.00;99.90
19031;DHT22;9648;51.130;13.978;2022-10-03T06:45:58;11.00;99.90
19031;DHT22;9648;51.130;13.978;2022-10-03T06:52:05;11.30;99.90
19031;DHT22;9648;51.130;13.978;2022-10-03T06:55:04;11.30;99.90
19031;DHT22;9648;51.130;13.978;2022-10-03T07:00:46;11.30;99.90
19031;DHT22;9648;51.130;13.978;2022-10-03T07:03:40;11.30;99.90
19031;DHT22;9648;51.130;13.978;2022-10-03T07:06:25;11.30;99.90
19031;DHT22;9648;51.130;13.978;2022-10-03T07:09:37;11.20;99.90
19031;DHT22;9648;51.130;13.978;2022-10-03T07:12:52;11.30;99.90
19031;DHT22;9648;51.130;13.978;2022-10-03T07:16:01;11.30;99.90
19031;DHT22;9648;51.130;13.978;2022-10-03T07:19:02;11.20;99.90
19031;DHT22;9648;51.130;13.978;2022-10-03T07:28:07;11.10;99.90
19031;DHT22;9648;51.130;13.978;2022-10-03T07:30:54;11.10;99.90
19031;DHT22;9648;51.130;13.978;2022-10-03T07:36:30;11.30;99.90
19031;DHT22;9648;51.130;13.978;2022-10-03T07:42:36;11.50;99.90
19031;DHT22;9648;51.130;13.978;2022-10-03T07:45:31;11.60;99.90
19031;DHT22;9648;51.130;13.978;2022-10-03T07:51:17;11.50;99.90
19031;DHT22;9648;51.130;13.978;2022-10-03T07:54:22;11.40;99.90
19031;DHT22;9648;51.130;13.978;2022-10-03T08:00:13;11.40;99.90
19031;DHT22;9648;51.130;13.978;2022-10-03T08:06:02;11.50;99.90
19031;DHT22;9648;51.130;13.978;2022-10-03T08:08:58;11.50;99.90
19031;DHT22;9648;51.130;13.978;2022-10-03T08:14:31;11.70;99.90
19031;DHT22;9648;51.130;13.978;2022-10-03T08:17:23;11.70;99.90
19031;DHT22;9648;51.130;13.978;2022-10-03T08:20:19;11.90;99.90
19031;DHT22;9648;51.130;13.978;2022-10-03T08:22:58;11.90;99.90
19031;DHT22;9648;51.130;13.978;2022-10-03T08:25:44;12.00;99.90
19031;DHT22;9648;51.130;13.978;2022-10-03T08:28:32;12.00;99.90
19031;DHT22;9648;51.130;13.978;2022-10-03T08:31:21;12.00;99.90
19031;DHT22;9648;51.130;13.978;2022-10-03T08:34:08;12.00;99.90
19031;DHT22;9648;51.130;13.978;2022-10-03T08:37:10;12.00;99.90
19031;DHT22;9648;51.130;13.978;2022-10-03T08:43:11;11.90;99.90
19031;DHT22;9648;51.130;13.978;2022-10-03T08:46:01;11.90;99.90
19031;DHT22;9648;51.130;13.978;2022-10-03T08:48:56;11.90;99.90
19031;DHT22;9648;51.130;13.978;2022-10-03T08:51:53;11.90;99.90
19031;DHT22;9648;51.130;13.978;2022-10-03T08:57:57;12.10;99.90
19031;DHT22;9648;51.130;13.978;2022-10-03T09:00:39;12.10;99.90
19031;DHT22;9648;51.130;13.978;2022-10-03T09:03:38;12.20;99.90
19031;DHT22;9648;51.130;13.978;2022-10-03T09:06:47;12.20;99.90
19031;DHT22;9648;51.130;13.978;2022-10-03T09:09:23;12.00;99.90
19031;DHT22;9648;51.130;13.978;2022-10-03T09:12:19;12.00;99.90
19031;DHT22;9648;51.130;13.978;2022-10-03T09:15:08;12.00;99.90
19031;DHT22;9648;51.130;13.978;2022-10-03T09:21:21;12.10;99.90
19031;DHT22;9648;51.130;13.978;2022-10-03T09:27:22;12.20;99.90
19031;DHT22;9648;51.130;13.978;2022-10-03T09:30:15;12.20;99.90
19031;DHT22;9648;51.130;13.978;2022-10-03T09:36:00;12.60;99.90
19031;DHT22;9648;51.130;13.978;2022-10-03T09:38:49;12.70;99.90
19031;DHT22;9648;51.130;13.978;2022-10-03T09:41:53;12.70;99.90
19031;DHT22;9648;51.130;13.978;2022-10-03T09:44:47;12.50;99.90
19031;DHT22;9648;51.130;13.978;2022-10-03T09:47:50;12.50;99.90
19031;DHT22;9648;51.130;13.978;2022-10-03T09:50:53;12.50;99.90
19031;DHT22;9648;51.130;13.978;2022-10-03T10:00:15;12.50;99.90
19031;DHT22;9648;51.130;13.978;2022-10-03T10:12:37;12.90;99.90
19031;DHT22;9648;51.130;13.978;2022-10-03T10:15:18;12.80;99.90
19031;DHT22;9648;51.130;13.978;2022-10-03T10:21:32;12.60;99.90
19031;DHT22;9648;51.130;13.978;2022-10-03T10:27:19;12.30;99.90
19031;DHT22;9648;51.130;13.978;2022-10-03T10:30:12;12.50;99.90
19031;DHT22;9648;51.130;13.978;2022-10-03T10:33:14;12.70;99.90
19031;DHT22;9648;51.130;13.978;2022-10-03T10:39:24;13.00;99.90
19031;DHT22;9648;51.130;13.978;2022-10-03T10:45:23;13.00;99.90
19031;DHT22;9648;51.130;13.978;2022-10-03T10:48:27;13.20;99.90
19031;DHT22;9648;51.130;13.978;2022-10-03T10:51:38;13.20;99.90
19031;DHT22;9648;51.130;13.978;2022-10-03T10:54:49;13.20;99.90
19031;DHT22;9648;51.130;13.978;2022-10-03T10:57:25;13.40;99.90
19031;DHT22;9648;51.130;13.978;2022-10-03T11:00:22;13.50;99.90
19031;DHT22;9648;51.130;13.978;2022-10-03T11:06:26;13.50;99.90
19031;DHT22;9648;51.130;13.978;2022-10-03T11:09:33;13.40;99.90
19031;DHT22;9648;51.130;13.978;2022-10-03T11:18:54;13.60;99.90
19031;DHT22;9648;51.130;13.978;2022-10-03T11:28:10;13.80;99.90
19031;DHT22;9648;51.130;13.978;2022-10-03T11:31:05;13.90;99.90
19031;DHT22;9648;51.130;13.978;2022-10-03T11:34:16;13.80;99.90
19031;DHT22;9648;51.130;13.978;2022-10-03T11:37:04;13.70;99.90
19031;DHT22;9648;51.130;13.978;2022-10-03T11:39:41;13.60;99.90
19031;DHT22;9648;51.130;13.978;2022-10-03T11:42:23;13.60;99.90
19031;DHT22;9648;51.130;13.978;2022-10-03T11:44:57;13.50;99.90
19031;DHT22;9648;51.130;13.978;2022-10-03T11:50:38;13.50;99.90
19031;DHT22;9648;51.130;13.978;2022-10-03T11:53:20;13.40;99.90
19031;DHT22;9648;51.130;13.978;2022-10-03T11:55:50;13.40;99.90
19031;DHT22;9648;51.130;13.978;2022-10-03T11:58:31;13.40;99.90
19031;DHT22;9648;51.130;13.978;2022-10-03T12:01:23;13.60;99.90
19031;DHT22;9648;51.130;13.978;2022-10-03T12:03:58;13.70;99.90
19031;DHT22;9648;51.130;13.978;2022-10-03T12:06:45;13.70;99.90
19031;DHT22;9648;51.130;13.978;2022-10-03T12:09:42;13.70;99.90
19031;DHT22;9648;51.130;13.978;2022-10-03T12:12:15;13.80;99.90
19031;DHT22;9648;51.130;13.978;2022-10-03T12:14:48;13.90;99.90
19031;DHT22;9648;51.130;13.978;2022-10-03T12:17:27;13.90;99.90
19031;DHT22;9648;51.130;13.978;2022-10-03T12:20:02;13.90;99.90
19031;DHT22;9648;51.130;13.978;2022-10-03T12:22:42;13.90;99.90
19031;DHT22;9648;51.130;13.978;2022-10-03T12:25:20;13.90;99.90
19031;DHT22;9648;51.130;13.978;2022-10-03T12:27:57;13.90;99.90
19031;DHT22;9648;51.130;13.978;2022-10-03T12:30:32;13.90;99.90
19031;DHT22;9648;51.130;13.978;2022-10-03T12:33:17;13.90;99.90
19031;DHT22;9648;51.130;13.978;2022-10-03T12:35:53;13.90;99.90
19031;DHT22;9648;51.130;13.978;2022-10-03T12:38:28;13.90;99.90
19031;DHT22;9648;51.130;13.978;2022-10-03T12:41:06;13.90;99.90
19031;DHT22;9648;51.130;13.978;2022-10-03T12:43:46;14.00;99.90
19031;DHT22;9648;51.130;13.978;2022-10-03T12:46:22;14.10;99.90
19031;DHT22;9648;51.130;13.978;2022-10-03T12:48:59;14.10;99.90
19031;DHT22;9648;51.130;13.978;2022-10-03T12:51:42;14.10;99.90
19031;DHT22;9648;51.130;13.978;2022-10-03T12:54:23;14.20;99.90
19031;DHT22;9648;51.130;13.978;2022-10-03T12:57:09;14.10;99.90
19031;DHT22;9648;51.130;13.978;2022-10-03T12:59:44;14.20;99.90
19031;DHT22;9648;51.130;13.978;2022-10-03T13:02:22;14.20;99.90
19031;DHT22;9648;51.130;13.978;2022-10-03T13:05:22;14.20;99.90
19031;DHT22;9648;51.130;13.978;2022-10-03T13:07:52;14.20;99.90
19031;DHT22;9648;51.130;13.978;2022-10-03T13:10:28;14.30;99.90
19031;DHT22;9648;51.130;13.978;2022-10-03T13:13:04;14.20;99.90
19031;DHT22;9648;51.130;13.978;2022-10-03T13:16:03;14.20;99.90
19031;DHT22;9648;51.130;13.978;2022-10-03T13:18:50;14.10;99.90
19031;DHT22;9648;51.130;13.978;2022-10-03T13:21:26;14.10;99.90
19031;DHT22;9648;51.130;13.978;2022-10-03T13:23:58;14.20;99.90
19031;DHT22;9648;51.130;13.978;2022-10-03T13:26:41;14.30;99.90
19031;DHT22;9648;51.130;13.978;2022-10-03T13:32:13;14.80;99.90
19031;DHT22;9648;51.130;13.978;2022-10-03T13:38:10;14.80;99.90
19031;DHT22;9648;51.130;13.978;2022-10-03T13:40:44;14.70;99.90
19031;DHT22;9648;51.130;13.978;2022-10-03T13:43:15;14.50;99.90
19031;DHT22;9648;51.130;13.978;2022-10-03T13:45:46;14.40;99.90
19031;DHT22;9648;51.130;13.978;2022-10-03T13:48:18;14.50;99.90
19031;DHT22;9648;51.130;13.978;2022-10-03T13:50:50;14.50;99.90
19031;DHT22;9648;51.130;13.978;2022-10-03T13:53:41;14.60;99.90
19031;DHT22;9648;51.130;13.978;2022-10-03T13:56:13;14.50;99.90
19031;DHT22;9648;51.130;13.978;2022-10-03T13:58:45;14.50;99.90
19031;DHT22;9648;51.130;13.978;2022-10-03T14:01:30;14.40;99.90
19031;DHT22;9648;51.130;13.978;2022-10-03T14:04:32;14.10;99.90
19031;DHT22;9648;51.130;13.978;2022-10-03T14:07:09;14.00;99.90
19031;DHT22;9648;51.130;13.978;2022-10-03T14:10:08;13.90;99.90
19031;DHT22;9648;51.130;13.978;2022-10-03T14:12:48;13.70;99.90
19031;DHT22;9648;51.130;13.978;2022-10-03T14:15:41;13.50;99.90
19031;DHT22;9648;51.130;13.978;2022-10-03T14:18:24;13.40;99.90
19031;DHT22;9648;51.130;13.978;2022-10-03T14:21:29;13.50;99.90
19031;DHT22;9648;51.130;13.978;2022-10-03T14:24:07;13.60;99.90
19031;DHT22;9648;51.130;13.978;2022-10-03T14:26:45;13.60;99.90
19031;DHT22;9648;51.130;13.978;2022-10-03T14:29:21;13.50;99.90
19031;DHT22;9648;51.130;13.978;2022-10-03T14:31:54;13.50;99.90
19031;DHT22;9648;51.130;13.978;2022-10-03T14:34:33;13.40;99.90
19031;DHT22;9648;51.130;13.978;2022-10-03T14:37:11;13.40;99.90
19031;DHT22;9648;51.130;13.978;2022-10-03T14:39:51;13.50;99.90
19031;DHT22;9648;51.130;13.978;2022-10-03T14:42:53;13.50;99.90
19031;DHT22;9648;51.130;13.978;2022-10-03T14:45:23;13.60;99.90
19031;DHT22;9648;51.130;13.978;2022-10-03T14:47:56;13.60;99.90
19031;DHT22;9648;51.130;13.978;2022-10-03T14:50:27;13.70;99.90
19031;DHT22;9648;51.130;13.978;2022-10-03T14:52:57;13.70;99.90
19031;DHT22;9648;51.130;13.978;2022-10-03T14:55:30;13.70;99.90
19031;DHT22;9648;51.130;13.978;2022-10-03T14:58:01;13.60;99.90
19031;DHT22;9648;51.130;13.978;2022-10-03T15:00:37;13.70;99.90
19031;DHT22;9648;51.130;13.978;2022-10-03T15:03:35;13.70;99.90
19031;DHT22;9648;51.130;13.978;2022-10-03T15:09:07;13.70;99.90
19031;DHT22;9648;51.130;13.978;2022-10-03T15:11:37;13.60;99.90
19031;DHT22;9648;51.130;13.978;2022-10-03T15:14:12;13.50;99.90
19031;DHT22;9648;51.130;13.978;2022-10-03T15:16:45;13.40;99.90
19031;DHT22;9648;51.130;13.978;2022-10-03T15:19:15;13.30;99.90
19031;DHT22;9648;51.130;13.978;2022-10-03T15:21:44;13.20;99.90
19031;DHT22;9648;51.130;13.978;2022-10-03T15:24:19;13.10;99.90
19031;DHT22;9648;51.130;13.978;2022-10-03T15:26:49;13.10;99.90
19031;DHT22;9648;51.130;13.978;2022-10-03T15:29:19;13.00;99.90
19031;DHT22;9648;51.130;13.978;2022-10-03T15:31:48;13.10;99.90
19031;DHT22;9648;51.130;13.978;2022-10-03T15:34:18;13.10;99.90
19031;DHT22;9648;51.130;13.978;2022-10-03T15:36:48;13.10;99.90
19031;DHT22;9648;51.130;13.978;2022-10-03T15:39:22;13.10;99.90
19031;DHT22;9648;51.130;13.978;2022-10-03T15:41:53;13.10;99.90
19031;DHT22;9648;51.130;13.978;2022-10-03T15:44:26;13.20;99.90
19031;DHT22;9648;51.130;13.978;2022-10-03T15:46:59;13.10;99.90
19031;DHT22;9648;51.130;13.978;2022-10-03T15:49:34;13.10;99.90
19031;DHT22;9648;51.130;13.978;2022-10-03T15:52:11;13.10;99.90
19031;DHT22;9648;51.130;13.978;2022-10-03T15:54:42;13.00;99.90
19031;DHT22;9648;51.130;13.978;2022-10-03T15:57:16;12.90;99.90
19031;DHT22;9648;51.130;13.978;2022-10-03T15:59:50;12.80;99.90
19031;DHT22;9648;51.130;13.978;2022-10-03T16:02:20;12.80;99.90
19031;DHT22;9648;51.130;13.978;2022-10-03T16:04:52;12.80;99.90
19031;DHT22;9648;51.130;13.978;2022-10-03T16:07:27;12.80;99.90
19031;DHT22;9648;51.130;13.978;2022-10-03T16:10:04;12.70;99.90
19031;DHT22;9648;51.130;13.978;2022-10-03T16:12:54;12.70;99.90
19031;DHT22;9648;51.130;13.978;2022-10-03T16:15:27;12.70;99.90
19031;DHT22;9648;51.130;13.978;2022-10-03T16:18:04;12.70;99.90
19031;DHT22;9648;51.130;13.978;2022-10-03T16:20:36;12.60;99.90
19031;DHT22;9648;51.130;13.978;2022-10-03T16:23:12;12.60;99.90
19031;DHT22;9648;51.130;13.978;2022-10-03T16:25:44;12.60;99.90
19031;DHT22;9648;51.130;13.978;2022-10-03T16:28:15;12.60;99.90
19031;DHT22;9648;51.130;13.978;2022-10-03T16:30:49;12.60;99.90
19031;DHT22;9648;51.130;13.978;2022-10-03T16:33:21;12.50;99.90
19031;DHT22;9648;51.130;13.978;2022-10-03T16:35:52;12.50;99.90
19031;DHT22;9648;51.130;13.978;2022-10-03T16:38:22;12.40;99.90
19031;DHT22;9648;51.130;13.978;2022-10-03T16:40:53;12.40;99.90
19031;DHT22;9648;51.130;13.978;2022-10-03T16:43:21;12.40;99.90
19031;DHT22;9648;51.130;13.978;2022-10-03T16:45:51;12.40;99.90
19031;DHT22;9648;51.130;13.978;2022-10-03T16:48:21;12.40;99.90
19031;DHT22;9648;51.130;13.978;2022-10-03T16:51:14;12.50;99.90
19031;DHT22;9648;51.130;13.978;2022-10-03T16:53:43;12.50;99.90
19031;DHT22;9648;51.130;13.978;2022-10-03T16:56:15;12.50;99.90
19031;DHT22;9648;51.130;13.978;2022-10-03T16:58:46;12.50;99.90
19031;DHT22;9648;51.130;13.978;2022-10-03T17:01:23;12.40;99.90
19031;DHT22;9648;51.130;13.978;2022-10-03T17:03:55;12.40;99.90
19031;DHT22;9648;51.130;13.978;2022-10-03T17:06:28;12.40;99.90
19031;DHT22;9648;51.130;13.978;2022-10-03T17:08:59;12.40;99.90
19031;DHT22;9648;51.130;13.978;2022-10-03T17:11:28;12.40;99.90
19031;DHT22;9648;51.130;13.978;2022-10-03T17:14:02;12.40;99.90
19031;DHT22;9648;51.130;13.978;2022-10-03T17:16:35;12.40;99.90
19031;DHT22;9648;51.130;13.978;2022-10-03T17:19:17;12.40;99.90
19031;DHT22;9648;51.130;13.978;2022-10-03T17:21:48;12.40;99.90
19031;DHT22;9648;51.130;13.978;2022-10-03T17:24:33;12.30;99.90
19031;DHT22;9648;51.130;13.978;2022-10-03T17:27:06;12.30;99.90
19031;DHT22;9648;51.130;13.978;2022-10-03T17:29:39;12.20;99.90
19031;DHT22;9648;51.130;13.978;2022-10-03T17:32:18;12.20;99.90
19031;DHT22;9648;51.130;13.978;2022-10-03T17:34:50;12.20;99.90
19031;DHT22;9648;51.130;13.978;2022-10-03T17:37:41;12.10;99.90
19031;DHT22;9648;51.130;13.978;2022-10-03T17:40:17;12.10;99.90
19031;DHT22;9648;51.130;13.978;2022-10-03T17:42:50;12.10;99.90
19031;DHT22;9648;51.130;13.978;2022-10-03T17:45:28;12.00;99.90
19031;DHT22;9648;51.130;13.978;2022-10-03T17:48:05;12.00;99.90
19031;DHT22;9648;51.130;13.978;2022-10-03T17:50:36;12.00;99.90
19031;DHT22;9648;51.130;13.978;2022-10-03T17:53:04;12.10;99.90
19031;DHT22;9648;51.130;13.978;2022-10-03T17:55:38;12.10;99.90
19031;DHT22;9648;51.130;13.978;2022-10-03T17:58:11;12.10;99.90
19031;DHT22;9648;51.130;13.978;2022-10-03T18:01:01;12.10;99.90
19031;DHT22;9648;51.130;13.978;2022-10-03T18:03:38;12.10;99.90
19031;DHT22;9648;51.130;13.978;2022-10-03T18:06:33;12.00;99.90
19031;DHT22;9648;51.130;13.978;2022-10-03T18:09:07;12.00;99.90
19031;DHT22;9648;51.130;13.978;2022-10-03T18:11:37;12.00;99.90
19031;DHT22;9648;51.130;13.978;2022-10-03T18:14:12;12.10;99.90
19031;DHT22;9648;51.130;13.978;2022-10-03T18:16:45;12.00;99.90
19031;DHT22;9648;51.130;13.978;2022-10-03T18:19:22;12.10;99.90
19031;DHT22;9648;51.130;13.978;2022-10-03T18:21:58;12.00;99.90
19031;DHT22;9648;51.130;13.978;2022-10-03T18:24:42;12.10;99.90
19031;DHT22;9648;51.130;13.978;2022-10-03T18:27:32;12.00;99.90
19031;DHT22;9648;51.130;13.978;2022-10-03T18:30:05;12.10;99.90
19031;DHT22;9648;51.130;13.978;2022-10-03T18:32:39;12.10;99.90
19031;DHT22;9648;51.130;13.978;2022-10-03T18:35:12;12.10;99.90
19031;DHT22;9648;51.130;13.978;2022-10-03T18:38:07;12.10;99.90
19031;DHT22;9648;51.130;13.978;2022-10-03T18:40:40;12.10;99.90
19031;DHT22;9648;51.130;13.978;2022-10-03T18:43:22;12.10;99.90
19031;DHT22;9648;51.130;13.978;2022-10-03T18:45:54;12.10;99.90
19031;DHT22;9648;51.130;13.978;2022-10-03T18:48:29;12.10;99.90
19031;DHT22;9648;51.130;13.978;2022-10-03T18:51:06;12.10;99.90
19031;DHT22;9648;51.130;13.978;2022-10-03T18:53:37;12.10;99.90
19031;DHT22;9648;51.130;13.978;2022-10-03T18:56:08;12.10;99.90
19031;DHT22;9648;51.130;13.978;2022-10-03T18:58:38;12.10;99.90
19031;DHT22;9648;51.130;13.978;2022-10-03T19:01:14;12.10;99.90
19031;DHT22;9648;51.130;13.978;2022-10-03T19:03:53;12.10;99.90
19031;DHT22;9648;51.130;13.978;2022-10-03T19:06:25;12.10;99.90
19031;DHT22;9648;51.130;13.978;2022-10-03T19:08:56;12.10;99.90
19031;DHT22;9648;51.130;13.978;2022-10-03T19:11:27;12.10;99.90
19031;DHT22;9648;51.130;13.978;2022-10-03T19:13:59;12.20;99.90
19031;DHT22;9648;51.130;13.978;2022-10-03T19:16:37;12.20;99.90
19031;DHT22;9648;51.130;13.978;2022-10-03T19:19:11;12.10;99.90
19031;DHT22;9648;51.130;13.978;2022-10-03T19:21:42;12.00;99.90
19031;DHT22;9648;51.130;13.978;2022-10-03T19:24:13;12.00;99.90
19031;DHT22;9648;51.130;13.978;2022-10-03T19:26:47;12.00;99.90
19031;DHT22;9648;51.130;13.978;2022-10-03T19:29:20;12.00;99.90